Terminal Aerodrome Forecast
Issued by NWS Oklahoma City, OK

Home | Current Version | Previous Version | Text Only | Print | Product List | Glossary On
Versions: 1 2 3 4 5 6 7 8 9 10 11 12 13 14 15
000
FTUS44 KOUN 191135
TAFOUN
TAF
KOUN 191135Z 1912/2012 17010KT P6SM OVC005
      TEMPO 1912/1914 5SM BR OVC003
     FM191600 18012KT P6SM BKN020
     FM191900 18012KT P6SM SCT040
     FM200000 15005KT P6SM BKN250=

USA.gov is the U.S. government's official web portal to all federal, state and local government web resources and services.